Station: Ulladulla  

  Atmospheric Gas Attenuation - ITU Rec 676-11   ----------------- dB/100km -----------------
Date Time Temp RH % AH g/m3 Dew Point Wind Direction Speed kph Gust kph Barometer mB Rainfall Since 9am 24GHz 47GHz 76GHz 122GHz 134GHz 241GHz
02/09 19:30 21.5 46 8.67 9.4 17 26 1012.5 0 19.4 23.9 36.4 95.4 90.0 310.0
02/09 19:20 21.4 46 8.62 9.3 15 24 1012.3 0 19.3 23.8 36.2 95.1 89.5 308.3
02/09 19:10 21.5 45 8.48 9.1 15 28 1012.2 0 19.0 23.6 35.7 93.6 87.7 302.1
02/09 19:00 21.5 45 8.48 9.1 15 22 1012.1 0 19.0 23.6 35.7 93.6 87.7 302.0
02/09 18:50 21.9 44 8.49 9.1 15 32 1012 0 19.0 23.5 35.5 93.2 87.4 300.9
02/09 18:40 21.8 44 8.44 9 13 28 1011.9 0 18.9 23.4 35.4 92.8 86.9 299.2
02/09 18:30 21.9 44 8.49 9.1 13 20 1011.8 0 19.0 23.5 35.5 93.2 87.4 300.9
02/09 18:20 22.3 43 8.49 9.1 17 26 1011.8 0 19.0 23.4 35.4 92.7 86.9 299.4
02/09 18:10 22.3 43 8.49 9.1 15 26 1011.7 0 19.0 23.4 35.4 92.7 86.9 299.4
02/09 18:00 22.5 43 8.59 9.3 17 30 1011.6 0 19.2 23.4 35.6 93.4 87.9 302.7
02/09 17:50 22.9 42 8.58 9.3 20 33 1011.4 0 19.1 23.3 35.4 92.9 87.3 300.8
02/09 17:40 23 42 8.63 9.4 19 30 1011.3 0 19.2 23.4 35.5 93.2 87.8 302.4
02/09 17:30 23.2 41 8.52 9.2 15 22 1011.1 0 19.0 23.2 35.0 91.9 86.3 297.1
02/09 17:20 23.4 41 8.62 9.4 17 30 1011 0 19.2 23.2 35.3 92.6 87.2 300.4
02/09 17:10 23.6 40 8.51 9.2 19 32 1010.9 0 18.9 23.0 34.8 91.4 85.7 295.2
02/09 17:00 24 39 8.48 9.2 17 28 1010.8 0 18.9 22.9 34.6 90.6 84.9 292.6
02/09 16:50 24.2 38 8.36 9 22 37 1010.5 0 18.6 22.7 34.0 89.3 83.3 287.0
02/09 16:40 24.4 38 8.46 9.2 17 28 1010.5 0 18.8 22.7 34.3 90.0 84.3 290.3
02/09 16:30 24.6 38 8.55 9.3 17 28 1010.5 0 19.0 22.8 34.5 90.6 85.1 293.1
02/09 16:20 24.9 38 8.7 9.6 19 32 1010.4 0 19.3 23.0 34.9 91.6 86.4 298.0
02/09 16:10 25.3 35 8.19 9.1 19 26 1010.4 0 18.2 22.2 33.0 86.5 80.3 276.5
02/09 16:00 25.3 35 8.19 9.1 26 32 1010.4 0 18.2 22.2 33.0 86.5 80.3 276.5
02/09 15:50 25.5 37 8.76 9.7 17 30 1010.5 0 19.4 22.9 34.9 91.5 86.5 298.2
02/09 15:40 25.5 37 8.76 9.7 17 28 1010.6 0 19.4 22.9 34.9 91.5 86.5 298.2
02/09 15:30 25.6 37 8.81 9.8 19 33 1010.8 0 19.5 23.0 35.0 91.9 87.0 299.9
02/09 15:20 26 35 8.52 9.4 17 28 1010.8 0 18.9 22.5 33.9 88.8 83.3 287.1
02/09 15:10 26.1 34 8.32 9 20 35 1010.8 0 18.4 22.2 33.1 86.9 81.0 278.9
02/09 15:00 26.3 35 8.66 9.6 15 35 1010.7 0 19.1 22.6 34.2 89.7 84.5 291.4
02/09 14:50 26.1 33 8.08 8.6 15 26 1010.8 0 17.9 21.8 32.3 84.8 78.3 269.6
02/09 14:40 26.2 32 7.88 8.2 19 41 1010.8 0 17.5 21.5 31.6 82.9 76.0 261.7
02/09 14:30 26.4 32 7.97 8.4 19 35 1010.7 0 17.7 21.6 31.9 83.5 76.8 264.4
02/09 14:20 26.2 32 7.88 8.2 17 37 1010.6 0 17.5 21.5 31.6 82.9 76.0 261.6
02/09 14:10 26.7 32 8.1 8.6 19 26 1010.5 0 18.0 21.7 32.2 84.3 77.9 268.4
02/09 14:00 26.8 32 8.15 8.7 19 33 1010.6 0 18.1 21.8 32.3 84.6 78.4 270.0
02/09 13:50 26.8 32 8.15 8.7 13 19 1010.6 0 18.1 21.8 32.3 84.6 78.4 270.0
02/09 13:40 26.9 33 8.45 9.3 17 30 1010.7 0 18.7 22.1 33.3 87.2 81.6 281.2
02/09 13:30 26.5 33 8.26 8.9 17 30 1010.8 0 18.3 22.0 32.8 85.9 79.9 275.3
02/09 13:20 26.8 32 8.15 8.7 13 28 1010.9 0 18.1 21.8 32.3 84.7 78.4 270.1
02/09 13:10 26.5 35 8.76 9.8 13 17 1011 0 19.3 22.7 34.5 90.5 85.5 294.7
02/09 13:00 26.8 35 8.91 10.1 13 28 1011.3 0 19.6 22.8 34.9 91.5 86.8 299.6
02/09 12:50 26.2 37 9.11 10.4 19 37 1011.5 0 20.1 23.2 35.8 94.0 89.8 309.8
02/09 12:40 26.3 37 9.16 10.5 13 24 1011.8 0 20.2 23.3 36.0 94.4 90.2 311.5
02/09 12:30 25.9 37 8.96 10.1 15 30 1012.1 0 19.8 23.1 35.5 93.1 88.4 305.1
02/09 12:20 26.2 37 9.11 10.4 11 24 1012.3 0 20.1 23.3 35.9 94.1 89.8 310.0
02/09 12:10 25.8 36 8.67 9.6 15 26 1012.5 0 19.2 22.8 34.5 90.5 85.3 294.1
02/09 12:00 25.5 37 8.76 9.7 15 32 1012.6 0 19.4 23.0 35.0 91.7 86.6 298.7
02/09 11:50 25.2 37 8.61 9.5 19 33 1013 0 19.1 22.8 34.6 90.7 85.3 294.0
02/09 11:40 24.8 39 8.88 9.9 22 35 1013.1 0 19.7 23.3 35.7 93.7 88.8 306.3
02/09 11:30 24.7 37 8.37 9 20 43 1013.4 0 18.6 22.6 34.0 89.1 83.1 286.3
02/09 11:20 24.8 38 8.65 9.5 13 32 1013.5 0 19.2 23.0 34.9 91.6 86.2 297.1
02/09 11:10 24.7 42 9.51 10.9 11 20 1013.6 0 21.0 24.3 38.0 99.8 96.3 332.4
02/09 11:00 24.1 41 8.97 10 9 17 1013.7 0 19.9 23.7 36.3 95.4 90.7 312.7
02/09 10:50 24.4 42 9.35 10.7 11 20 1013.9 0 20.7 24.1 37.6 98.6 94.8 327.2
02/09 10:40 23.7 43 9.2 10.4 9 17 1014 0 20.4 24.1 37.4 98.1 93.9 323.8
02/09 10:30 23.3 44 9.2 10.4 11 19 1014.1 0 20.4 24.2 37.5 98.6 94.3 325.5
02/09 10:20 23 44 9.04 10.1 11 19 1014.2 0 20.1 24.1 37.1 97.4 92.8 320.0
02/09 10:10 22.7 44 8.89 10.1 9 13 1014.3 0 19.8 23.9 36.7 96.3 91.4 315.0
02/09 10:00 22.8 45 9.14 10.5 13 15 1014.3 0 20.3 24.3 37.6 98.6 94.2 325.0
02/09 09:50 22.3 45 8.89 9.8 13 24 1014.5 0 19.8 24.0 36.9 96.8 91.9 316.6
02/09 09:40 22.6 45 9.04 10.1 15 22 1014.5 0 20.1 24.2 37.3 97.9 93.3 321.7
02/09 09:30 21.9 46 8.88 9.8 20 32 1014.6 0 19.8 24.1 37.1 97.2 92.2 317.8
02/09 09:20 21.6 46 8.72 9.5 19 28 1014.5 0 19.5 24.0 36.6 96.0 90.6 312.3
02/09 09:10 21.7 47 8.96 9.9 17 28 1014.7 0 20.0 24.3 37.4 98.2 93.4 322.0
02/09 09:00 21.4 47 8.81 9.6 19 26 1014.9 0 19.7 24.2 37.0 97.2 92.0 316.9
02/09 08:50 21.2 48 8.89 9.8 17 26 1015 0 19.8 24.3 37.4 98.2 93.2 321.1
02/09 08:40 20.9 48 8.74 9.5 15 22 1015.2 0 19.5 24.2 37.0 97.1 91.7 316.0
02/09 08:30 20.9 47 8.56 9.2 13 22 1015.3 0 19.2 23.9 36.4 95.4 89.6 308.4
02/09 08:20 20.8 49 8.87 9.7 11 19 1015.5 0 19.8 24.4 37.6 98.5 93.4 322.0
02/09 08:10 20.5 51 9.07 10 11 17 1015.3 0 20.3 24.8 38.4 100.9 96.2 331.7
02/09 08:00 20.1 52 9.04 9.9 11 17 1015.3 0 20.2 24.9 38.5 101.1 96.3 332.1
02/09 07:50 19.9 51 8.76 9.5 15 24 1015 0 19.6 24.5 37.5 98.5 93.1 320.8
02/09 07:40 19.4 52 8.68 9.3 15 22 1014.8 0 19.5 24.5 37.5 98.3 92.7 319.3
02/09 07:30 18.9 54 8.75 9.4 13 17 1014.9 0 19.7 24.8 38.0 99.6 94.2 324.3
02/09 07:20 18.7 54 8.64 9.2 11 17 1015 0 19.4 24.6 37.7 98.8 93.1 320.4
02/09 07:10 18.5 55 8.7 9.3 11 19 1014.9 0 19.6 24.8 38.0 99.6 94.0 323.8
02/09 07:00 18.1 58 8.96 9.7 7 17 1014.9 0 20.1 25.3 39.2 102.8 97.8 336.9
02/09 06:50 17.9 58 8.86 9.5 9 13 1014.8 0 19.9 25.2 38.9 102.0 96.8 333.3
02/09 06:40 17.9 57 8.7 9.3 7 11 1014.5 0 19.6 24.9 38.2 100.3 94.7 326.1
02/09 06:30 18.7 52 8.32 8.7 11 20 1014.5 0 18.8 24.1 36.4 95.5 89.1 306.5
02/09 06:20 19.2 50 8.24 8.5 13 26 1014.5 0 18.6 23.9 35.9 94.2 87.5 301.2
02/09 06:10 19.1 50 8.2 8.4 13 20 1014.2 0 18.5 23.8 35.8 93.8 87.2 299.8
02/09 06:00 19.2 50 8.24 8.5 17 28 1014 0 18.6 23.9 35.9 94.1 87.5 301.0
02/09 05:50 19.5 49 8.22 8.5 15 26 1013.9 0 18.5 23.8 35.7 93.5 86.9 299.0
02/09 05:40 19.1 51 8.36 8.7 15 20 1014.1 0 18.8 24.1 36.4 95.4 89.1 306.5
02/09 05:30 19.1 51 8.36 8.7 11 22 1014.3 0 18.8 24.1 36.4 95.4 89.1 306.6
02/09 05:20 19.1 51 8.36 8.7 7 15 1014.6 0 18.8 24.1 36.4 95.5 89.1 306.7
02/09 05:10 19.2 50 8.24 8.5 13 22 1014.5 0 18.6 23.9 35.9 94.2 87.5 301.2
02/09 05:00 19.3 50 8.29 8.6 15 22 1014.4 0 18.7 23.9 36.1 94.5 88.0 302.9
02/09 04:50 19.4 49 8.17 8.4 13 20 1014.4 0 18.4 23.7 35.6 93.2 86.5 297.4
02/09 04:40 19.5 49 8.22 8.5 11 19 1014.4 0 18.5 23.8 35.7 93.6 87.0 299.2
02/09 04:30 19.9 48 8.25 8.6 13 20 1014.5 0 18.6 23.7 35.6 93.4 86.9 299.0
02/09 04:20 19.7 47 7.98 8.1 7 15 1015.2 0 18.0 23.4 34.8 91.1 83.9 288.5
02/09 04:10 19.8 46 7.86 7.9 7 13 1015.2 0 17.7 23.2 34.3 89.8 82.4 283.2
02/09 04:00 20 45 7.78 7.7 9 15 1015.1 0 17.6 23.0 33.9 88.8 81.2 279.1
02/09 03:50 20.2 44 7.69 7.6 9 19 1015 0 17.4 22.8 33.5 87.8 80.0 274.7
02/09 03:40 20.5 43 7.65 7.5 11 19 1015.1 0 17.3 22.7 33.3 87.1 79.2 272.1
02/09 03:30 20.8 42 7.6 7.4 15 22 1014.9 0 17.2 22.6 33.0 86.3 78.3 269.0
02/09 03:20 20.5 42 7.47 7.2 11 19 1014.9 0 16.9 22.5 32.6 85.3 77.1 264.7
02/09 03:10 21 41 7.51 7.3 15 32 1014.8 0 17.0 22.4 32.6 85.2 77.1 264.7
02/09 03:00 20.7 42 7.56 7.3 11 20 1015 0 17.1 22.5 32.9 86.0 78.0 267.7

Last Refresh: 02-Sep-2026 19:13:23

Bureau of Meteorology